createdAt,value
2019-01-03T00:01:45.661Z,9.90
2019-01-03T00:04:52.669Z,14.37
2019-01-03T00:07:59.653Z,10.13
2019-01-03T00:11:06.639Z,12.63
2019-01-03T00:14:13.603Z,13.77
2019-01-03T00:17:20.714Z,10.20
2019-01-03T00:20:27.707Z,18.93
2019-01-03T00:23:10.150Z,11.30
2019-01-03T00:25:55.759Z,13.47
2019-01-03T00:28:55.273Z,10.93
2019-01-03T00:32:02.269Z,14.30
2019-01-03T00:35:09.282Z,9.07
2019-01-03T00:41:24.788Z,8.80
2019-01-03T00:44:31.753Z,11.23
2019-01-03T00:47:38.737Z,10.63
2019-01-03T00:56:52.924Z,11.90
2019-01-03T00:59:59.973Z,10.87
2019-01-03T01:03:06.959Z,8.67
2019-01-03T01:09:08.949Z,11.10
2019-01-03T01:12:15.963Z,9.37
2019-01-03T01:18:31.869Z,17.80
2019-01-03T01:21:31.803Z,14.93
2019-01-03T01:27:07.784Z,11.97
2019-01-03T01:29:50.542Z,15.43
2019-01-03T01:32:50.784Z,13.73
2019-01-03T01:35:32.893Z,16.07
2019-01-03T01:38:33.367Z,15.00
2019-01-03T01:41:15.782Z,14.27
2019-01-03T01:44:15.628Z,15.27
2019-01-03T01:47:22.596Z,13.13
2019-01-03T01:50:29.583Z,10.17
2019-01-03T01:53:36.556Z,15.03
2019-01-03T01:56:43.599Z,11.70
2019-01-03T01:59:50.650Z,11.67
2019-01-03T02:02:57.673Z,14.67
2019-01-03T02:06:04.677Z,8.37
2019-01-03T02:09:11.678Z,12.33
2019-01-03T02:12:18.649Z,10.90
2019-01-03T02:15:25.648Z,14.40
2019-01-03T02:24:11.391Z,11.77
2019-01-03T02:27:10.973Z,12.70
2019-01-03T02:30:17.950Z,16.17
2019-01-03T02:33:24.995Z,14.37
2019-01-03T02:36:32.023Z,17.33
2019-01-03T02:39:38.983Z,14.93
2019-01-03T02:42:45.998Z,17.97
2019-01-03T02:45:52.966Z,11.07
2019-01-03T02:48:59.968Z,14.03
2019-01-03T02:52:06.946Z,11.50
2019-01-03T02:55:13.944Z,15.33
2019-01-03T02:58:21.029Z,16.27
2019-01-03T03:01:28.031Z,20.67
2019-01-03T03:04:35.038Z,14.13
2019-01-03T03:07:41.997Z,17.80
2019-01-03T03:10:49.136Z,19.67
2019-01-03T03:13:56.105Z,16.03
2019-01-03T03:17:03.184Z,16.23
2019-01-03T03:25:59.795Z,15.30
2019-01-03T03:29:06.767Z,15.57
2019-01-03T03:32:13.770Z,15.97
2019-01-03T03:35:20.876Z,21.27
2019-01-03T03:38:28.061Z,20.83
2019-01-03T03:44:33.548Z,19.27
2019-01-03T03:47:40.591Z,15.33
2019-01-03T03:50:47.556Z,18.70
2019-01-03T03:53:54.594Z,11.77
2019-01-03T03:57:01.563Z,15.33
2019-01-03T04:00:08.546Z,14.53
2019-01-03T04:03:15.538Z,17.83
2019-01-03T04:06:22.686Z,14.77
2019-01-03T04:09:29.692Z,14.00
2019-01-03T04:15:31.501Z,18.57
2019-01-03T04:18:38.473Z,16.00
2019-01-03T04:24:22.032Z,18.70
2019-01-03T04:27:03.912Z,14.70
2019-01-03T04:30:04.092Z,13.63
2019-01-03T04:35:58.183Z,17.07
2019-01-03T04:38:58.472Z,18.63
2019-01-03T04:41:43.467Z,19.57
2019-01-03T04:44:25.981Z,16.37
2019-01-03T04:47:25.883Z,14.30
2019-01-03T04:50:25.390Z,17.97
2019-01-03T04:53:25.791Z,20.77
2019-01-03T04:59:38.761Z,18.70
2019-01-03T05:02:24.231Z,17.77
2019-01-03T05:05:09.624Z,15.77
2019-01-03T05:07:50.229Z,18.80
2019-01-03T05:13:55.437Z,24.47
2019-01-03T05:17:02.413Z,17.30
2019-01-03T05:20:09.534Z,19.00
2019-01-03T05:23:09.468Z,24.37
2019-01-03T05:26:09.012Z,17.07
2019-01-03T05:29:08.615Z,22.13
2019-01-03T05:32:08.241Z,19.70
2019-01-03T05:35:07.868Z,22.50
2019-01-03T05:38:07.438Z,27.33
2019-01-03T05:40:47.811Z,27.30
2019-01-03T05:46:53.171Z,23.43
2019-01-03T05:50:00.187Z,25.40
2019-01-03T05:53:07.263Z,25.83
2019-01-03T05:56:14.223Z,25.63
2019-01-03T06:02:19.498Z,26.00
2019-01-03T06:05:26.480Z,27.67
2019-01-03T06:08:33.462Z,30.07
2019-01-03T06:11:40.431Z,25.87
2019-01-03T06:14:47.497Z,39.73
2019-01-03T06:20:52.813Z,32.40
2019-01-03T06:23:52.817Z,25.40
2019-01-03T06:26:53.148Z,27.27
2019-01-03T06:29:53.285Z,33.50
2019-01-03T06:32:36.061Z,30.37
2019-01-03T06:35:18.451Z,29.43
2019-01-03T06:38:04.206Z,29.40
2019-01-03T06:40:49.959Z,28.00
2019-01-03T06:43:34.988Z,31.80
2019-01-03T06:46:18.195Z,29.20
2019-01-03T06:49:25.186Z,26.30
2019-01-03T06:52:32.241Z,30.83
2019-01-03T06:55:39.238Z,26.03
2019-01-03T06:58:46.202Z,27.30
2019-01-03T07:01:53.770Z,23.67
2019-01-03T07:05:00.738Z,31.23
2019-01-03T07:11:02.643Z,24.57
2019-01-03T07:17:18.118Z,24.70
2019-01-03T07:20:25.107Z,21.20
2019-01-03T07:23:32.151Z,26.17
2019-01-03T07:26:31.816Z,21.43
2019-01-03T07:29:31.287Z,28.60
2019-01-03T07:32:13.265Z,18.53
2019-01-03T07:34:55.939Z,23.80
2019-01-03T07:37:38.376Z,20.27
2019-01-03T07:40:23.863Z,18.57
2019-01-03T07:43:06.606Z,18.60
2019-01-03T07:48:43.423Z,21.90
2019-01-03T07:51:25.786Z,19.73
2019-01-03T08:00:26.961Z,23.70
2019-01-03T08:03:27.313Z,23.60
2019-01-03T08:09:06.502Z,23.43
2019-01-03T08:18:08.638Z,21.93
2019-01-03T08:21:15.621Z,24.10
2019-01-03T08:24:22.726Z,20.67
2019-01-03T08:30:38.308Z,22.37
2019-01-03T08:33:43.636Z,20.70
2019-01-03T08:36:13.725Z,21.33
2019-01-03T08:38:59.772Z,18.20
2019-01-03T08:41:44.718Z,21.00
2019-01-03T08:44:20.236Z,19.20
2019-01-03T08:47:06.318Z,22.77
2019-01-03T08:49:52.311Z,24.53
2019-01-03T08:52:40.118Z,12.77
2019-01-03T08:55:25.947Z,14.93
2019-01-03T08:58:08.207Z,6.17
2019-01-03T09:00:38.404Z,10.57
2019-01-03T09:03:14.157Z,11.10
2019-01-03T09:05:46.931Z,11.60
2019-01-03T09:08:19.429Z,8.57
2019-01-03T09:11:05.720Z,6.00
2019-01-03T09:13:35.851Z,6.27
2019-01-03T09:16:20.758Z,4.17
2019-01-03T09:18:53.446Z,5.60
2019-01-03T09:21:23.517Z,6.77
2019-01-03T09:23:53.568Z,4.77
2019-01-03T09:26:29.561Z,7.37
2019-01-03T09:29:02.056Z,6.77
2019-01-03T09:31:34.701Z,6.37
2019-01-03T09:34:20.627Z,8.07
2019-01-03T09:37:06.543Z,10.40
2019-01-03T09:39:54.468Z,10.43
2019-01-03T09:42:27.346Z,10.70
2019-01-03T09:44:55.827Z,7.80
2019-01-03T09:47:24.325Z,10.73
2019-01-03T09:49:53.449Z,8.17
2019-01-03T09:52:22.010Z,10.73
2019-01-03T09:54:50.506Z,10.27
2019-01-03T09:57:18.998Z,8.13
2019-01-03T09:59:47.590Z,7.10
2019-01-03T10:02:16.094Z,14.67
2019-01-03T10:04:44.578Z,10.67
2019-01-03T10:07:13.172Z,9.53
2019-01-03T10:09:41.703Z,9.73
2019-01-03T10:12:10.176Z,5.67
2019-01-03T10:14:38.657Z,6.73
2019-01-03T10:17:07.162Z,7.67
2019-01-03T10:19:35.661Z,6.43
2019-01-03T10:22:04.186Z,6.67
2019-01-03T10:24:32.721Z,12.40
2019-01-03T10:27:01.268Z,14.00
2019-01-03T10:29:29.771Z,7.03
2019-01-03T10:31:58.247Z,10.40
2019-01-03T10:34:26.713Z,10.33
2019-01-03T10:36:55.212Z,9.43
2019-01-03T10:39:23.681Z,9.43
2019-01-03T10:41:52.224Z,11.63
2019-01-03T10:44:20.878Z,10.57
2019-01-03T10:46:49.384Z,9.37
2019-01-03T10:49:17.842Z,7.60
2019-01-03T10:51:46.338Z,7.80
2019-01-03T10:54:14.808Z,8.63
2019-01-03T10:56:43.293Z,6.27
2019-01-03T10:59:11.795Z,13.17
2019-01-03T11:01:40.269Z,5.43
2019-01-03T11:04:08.867Z,9.23
2019-01-03T11:06:37.561Z,7.13
2019-01-03T11:09:06.873Z,9.53
2019-01-03T11:11:35.485Z,7.13
2019-01-03T11:14:03.973Z,9.70
2019-01-03T11:16:32.702Z,6.17
2019-01-03T11:19:01.172Z,7.73
2019-01-03T11:21:29.832Z,6.47
2019-01-03T11:23:58.354Z,6.77
2019-01-03T11:26:26.903Z,4.10
2019-01-03T11:28:55.375Z,8.33
2019-01-03T11:31:23.912Z,4.40
2019-01-03T11:33:52.616Z,7.67
2019-01-03T11:36:21.290Z,7.47
2019-01-03T11:38:49.770Z,7.83
2019-01-03T11:41:18.291Z,10.43
2019-01-03T11:43:46.815Z,7.23
2019-01-03T11:46:15.322Z,9.97
2019-01-03T11:48:43.939Z,7.50
2019-01-03T11:51:12.483Z,4.47
2019-01-03T11:53:40.971Z,7.03
2019-01-03T11:56:09.449Z,1.60
2019-01-03T11:58:38.011Z,2.77
2019-01-03T12:01:06.488Z,2.53
2019-01-03T12:03:34.978Z,2.80
2019-01-03T12:06:03.598Z,3.53
2019-01-03T12:08:32.111Z,2.97
2019-01-03T12:11:00.626Z,3.20
2019-01-03T12:13:29.113Z,2.80
2019-01-03T12:15:57.703Z,3.77
2019-01-03T12:18:26.192Z,5.47
2019-01-03T12:20:54.723Z,3.93
2019-01-03T12:23:23.207Z,6.10
2019-01-03T12:25:51.783Z,4.37
2019-01-03T12:28:20.312Z,4.80
2019-01-03T12:30:48.884Z,4.97
2019-01-03T12:33:17.467Z,4.63
2019-01-03T12:35:46.046Z,8.03
2019-01-03T12:38:14.582Z,4.73
2019-01-03T12:40:43.138Z,4.77
2019-01-03T12:43:11.612Z,4.60
2019-01-03T12:45:40.147Z,5.27
2019-01-03T12:48:08.746Z,9.77
2019-01-03T12:50:37.260Z,5.03
2019-01-03T12:53:05.768Z,7.03
2019-01-03T12:55:34.377Z,6.83
2019-01-03T12:58:02.928Z,7.60
2019-01-03T13:00:31.442Z,9.00
2019-01-03T13:02:59.943Z,8.93
2019-01-03T13:05:28.535Z,7.57
2019-01-03T13:07:57.043Z,11.27
2019-01-03T13:10:25.531Z,8.23
2019-01-03T13:12:54.050Z,12.37
2019-01-03T13:15:22.663Z,10.90
2019-01-03T13:17:51.164Z,8.50
2019-01-03T13:20:19.785Z,11.17
2019-01-03T13:22:48.293Z,6.73
2019-01-03T13:25:16.797Z,5.87
2019-01-03T13:27:45.305Z,4.03
2019-01-03T13:30:13.811Z,6.33
2019-01-03T13:32:42.326Z,4.73
2019-01-03T13:35:10.839Z,9.53
2019-01-03T13:37:39.540Z,32.43
2019-01-03T13:40:08.029Z,7.80
2019-01-03T13:42:36.545Z,8.40
2019-01-03T13:45:05.351Z,2.77
2019-01-03T13:47:33.919Z,3.83
2019-01-03T13:50:02.478Z,2.77
2019-01-03T13:52:30.981Z,6.77
2019-01-03T13:54:59.626Z,5.70
2019-01-03T13:57:28.260Z,3.70
2019-01-03T13:59:56.743Z,3.00
2019-01-03T14:02:25.263Z,5.07
2019-01-03T14:04:53.788Z,8.97
2019-01-03T14:07:22.330Z,5.60
2019-01-03T14:09:50.827Z,8.90
2019-01-03T14:12:19.369Z,4.93
2019-01-03T14:14:47.847Z,5.63
2019-01-03T14:17:16.342Z,4.57
2019-01-03T14:19:44.852Z,4.97
2019-01-03T14:22:13.327Z,6.07
2019-01-03T14:24:42.014Z,8.43
2019-01-03T14:27:10.587Z,4.27
2019-01-03T14:29:39.112Z,3.27
2019-01-03T14:32:07.733Z,4.07
2019-01-03T14:34:36.233Z,5.27
2019-01-03T14:37:04.742Z,4.23
2019-01-03T14:39:33.438Z,5.87
2019-01-03T14:42:01.923Z,5.07
2019-01-03T14:44:30.474Z,4.50
2019-01-03T14:46:59.124Z,4.10
2019-01-03T14:49:27.720Z,5.43
2019-01-03T14:51:56.423Z,5.83
2019-01-03T14:54:24.936Z,4.63
2019-01-03T14:56:53.436Z,5.90
2019-01-03T14:59:21.906Z,8.20
2019-01-03T15:01:50.588Z,6.40
2019-01-03T15:04:19.204Z,7.03
2019-01-03T15:06:47.716Z,5.87
2019-01-03T15:09:16.228Z,6.30
2019-01-03T15:11:44.778Z,5.40
2019-01-03T15:14:13.311Z,5.90
2019-01-03T15:16:42.007Z,4.23
2019-01-03T15:19:10.468Z,3.50
2019-01-03T15:21:38.989Z,6.90
2019-01-03T15:24:07.483Z,4.13
2019-01-03T15:26:36.050Z,5.73
2019-01-03T15:29:04.548Z,6.20
2019-01-03T15:31:33.033Z,6.33
2019-01-03T15:34:01.677Z,6.07
2019-01-03T15:36:30.148Z,8.47
2019-01-03T15:38:58.666Z,7.90
2019-01-03T15:41:28.721Z,6.30
2019-01-03T15:43:57.206Z,7.57
2019-01-03T15:46:25.812Z,7.33
2019-01-03T15:48:54.496Z,7.87
2019-01-03T15:51:23.662Z,8.30
2019-01-03T15:53:52.153Z,4.40
2019-01-03T15:56:20.757Z,6.13
2019-01-03T15:58:49.357Z,6.17
2019-01-03T16:01:17.858Z,5.53
2019-01-03T16:03:46.453Z,6.30
2019-01-03T16:06:14.986Z,9.20
2019-01-03T16:08:43.472Z,4.77
2019-01-03T16:11:12.143Z,5.27
2019-01-03T16:13:40.631Z,9.20
2019-01-03T16:16:09.141Z,7.47
2019-01-03T16:18:37.764Z,5.87
2019-01-03T16:21:06.307Z,7.83
2019-01-03T16:23:34.872Z,11.47
2019-01-03T16:26:03.535Z,8.63
2019-01-03T16:28:32.102Z,9.30
2019-01-03T16:31:00.611Z,6.07
2019-01-03T16:33:29.194Z,8.67
2019-01-03T16:35:57.772Z,8.83
2019-01-03T16:38:26.270Z,5.20
2019-01-03T16:40:54.777Z,9.43
2019-01-03T16:43:23.281Z,9.17
2019-01-03T16:45:51.818Z,8.70
2019-01-03T16:48:20.338Z,8.57
2019-01-03T16:50:54.483Z,6.70
2019-01-03T16:53:22.966Z,9.17
2019-01-03T16:55:51.571Z,8.73
2019-01-03T16:58:20.083Z,5.07
2019-01-03T17:00:48.765Z,11.97
2019-01-03T17:03:17.266Z,7.83
2019-01-03T17:05:45.779Z,10.67
2019-01-03T17:08:14.440Z,8.17
2019-01-03T17:10:42.957Z,8.83
2019-01-03T17:13:11.448Z,8.47
2019-01-03T17:15:39.963Z,10.23
2019-01-03T17:18:08.524Z,6.67
2019-01-03T17:20:37.008Z,9.77
2019-01-03T17:23:05.530Z,10.57
2019-01-03T17:25:34.049Z,10.10
2019-01-03T17:28:02.534Z,8.67
2019-01-03T17:30:31.138Z,7.30
2019-01-03T17:32:59.826Z,11.00
2019-01-03T17:35:28.307Z,6.93
2019-01-03T17:37:56.791Z,13.33
2019-01-03T17:40:25.441Z,11.10
2019-01-03T17:42:53.990Z,11.50
2019-01-03T17:45:22.509Z,13.57
2019-01-03T17:47:50.992Z,15.77
2019-01-03T17:50:20.017Z,12.53
2019-01-03T17:52:48.664Z,13.80
2019-01-03T17:55:17.258Z,12.93
2019-01-03T17:57:45.773Z,12.60
2019-01-03T18:00:16.979Z,13.33
2019-01-03T18:02:45.462Z,11.63
2019-01-03T18:05:13.982Z,11.00
2019-01-03T18:07:42.505Z,11.23
2019-01-03T18:10:12.902Z,15.00
2019-01-03T18:12:41.544Z,18.43
2019-01-03T18:15:10.093Z,12.97
2019-01-03T18:17:38.607Z,11.53
2019-01-03T18:20:10.297Z,12.93
2019-01-03T18:22:38.795Z,14.00
2019-01-03T18:25:07.418Z,15.37
2019-01-03T18:27:35.907Z,13.13
2019-01-03T18:30:06.655Z,12.90
2019-01-03T18:32:35.170Z,12.37
2019-01-03T18:35:03.678Z,11.27
2019-01-03T18:37:32.215Z,14.00
2019-01-03T18:40:00.802Z,16.00
2019-01-03T18:42:29.319Z,8.73
2019-01-03T18:44:57.927Z,12.77
2019-01-03T18:47:26.604Z,13.23
2019-01-03T18:49:55.078Z,11.60
2019-01-03T18:52:23.604Z,12.20
2019-01-03T18:54:52.106Z,13.83
2019-01-03T18:57:20.626Z,12.97
2019-01-03T18:59:49.147Z,13.70
2019-01-03T19:02:17.652Z,15.87
2019-01-03T19:04:46.288Z,16.07
2019-01-03T19:07:14.943Z,11.80
2019-01-03T19:09:43.497Z,13.03
2019-01-03T19:12:12.019Z,9.90
2019-01-03T19:14:40.723Z,14.47
2019-01-03T19:17:09.238Z,14.40
2019-01-03T19:19:37.757Z,9.10
2019-01-03T19:22:06.274Z,12.60
2019-01-03T19:24:35.752Z,11.33
2019-01-03T19:27:04.333Z,13.70
2019-01-03T19:29:33.092Z,11.93
2019-01-03T19:32:04.593Z,11.97
2019-01-03T19:34:33.155Z,12.97
2019-01-03T19:37:01.736Z,12.27
2019-01-03T19:39:30.231Z,13.50
2019-01-03T19:41:58.818Z,12.10
2019-01-03T19:44:27.302Z,13.17
2019-01-03T19:46:55.801Z,12.60
2019-01-03T19:49:24.353Z,16.07
2019-01-03T19:51:52.876Z,16.30
2019-01-03T19:54:21.401Z,17.63
2019-01-03T19:56:50.067Z,13.97
2019-01-03T19:59:18.606Z,14.33
2019-01-03T20:01:47.187Z,15.70
2019-01-03T20:04:15.711Z,15.97
2019-01-03T20:06:44.237Z,16.47
2019-01-03T20:09:12.757Z,19.93
2019-01-03T20:11:41.297Z,16.13
2019-01-03T20:14:09.832Z,16.50
2019-01-03T20:16:38.423Z,17.43
2019-01-03T20:19:07.048Z,17.57
2019-01-03T20:21:35.536Z,19.97
2019-01-03T20:24:07.141Z,14.77
2019-01-03T20:26:35.632Z,16.77
2019-01-03T20:29:04.238Z,20.47
2019-01-03T20:31:32.758Z,17.73
2019-01-03T20:34:01.274Z,16.43
2019-01-03T20:36:29.927Z,13.83
2019-01-03T20:38:58.434Z,17.93
2019-01-03T20:41:26.942Z,17.63
2019-01-03T20:43:55.668Z,21.87
2019-01-03T20:46:24.234Z,17.80
2019-01-03T20:48:52.763Z,17.10
2019-01-03T20:51:21.452Z,17.70
2019-01-03T20:53:50.074Z,17.13
2019-01-03T20:56:18.611Z,16.70
2019-01-03T20:58:47.127Z,19.70
2019-01-03T21:01:15.635Z,21.97
2019-01-03T21:03:44.161Z,19.80
2019-01-03T21:06:12.731Z,19.63
2019-01-03T21:08:41.456Z,21.30
2019-01-03T21:11:09.951Z,20.73
2019-01-03T21:13:38.571Z,22.80
2019-01-03T21:16:07.093Z,21.63
2019-01-03T21:18:35.598Z,20.00
2019-01-03T21:21:04.207Z,21.53
2019-01-03T21:23:32.767Z,16.67
2019-01-03T21:26:01.296Z,13.90
2019-01-03T21:28:29.920Z,16.00
2019-01-03T21:30:58.425Z,17.57
2019-01-03T21:33:26.916Z,16.57
2019-01-03T21:35:55.518Z,15.03
2019-01-03T21:38:24.020Z,12.10
2019-01-03T21:40:52.551Z,14.10
2019-01-03T21:43:21.045Z,13.73
2019-01-03T21:45:49.567Z,11.73
2019-01-03T21:48:18.081Z,14.37
2019-01-03T21:50:46.630Z,13.07
2019-01-03T21:53:15.290Z,11.63
2019-01-03T21:55:43.771Z,10.63
2019-01-03T21:58:12.294Z,15.23
2019-01-03T22:00:40.913Z,13.97
2019-01-03T22:03:09.406Z,15.33
2019-01-03T22:05:37.922Z,10.80
2019-01-03T22:08:06.432Z,14.03
2019-01-03T22:10:34.932Z,16.20
2019-01-03T22:13:03.448Z,15.60
2019-01-03T22:15:31.937Z,11.83
2019-01-03T22:18:00.607Z,15.10
2019-01-03T22:20:29.299Z,11.43
2019-01-03T22:22:57.821Z,16.40
2019-01-03T22:25:26.336Z,15.93
2019-01-03T22:27:54.872Z,14.93
2019-01-03T22:30:25.218Z,13.67
2019-01-03T22:32:53.786Z,12.33
2019-01-03T22:35:22.314Z,12.43
2019-01-03T22:37:50.808Z,15.17
2019-01-03T22:40:19.333Z,13.63
2019-01-03T22:42:47.848Z,12.67
2019-01-03T22:45:16.380Z,17.27
2019-01-03T22:47:44.874Z,15.20
2019-01-03T22:50:13.401Z,17.60
2019-01-03T22:52:41.984Z,20.87
2019-01-03T22:55:10.469Z,19.17
2019-01-03T22:57:39.001Z,19.97
2019-01-03T23:00:30.799Z,21.90
2019-01-03T23:02:59.342Z,20.17
2019-01-03T23:05:27.835Z,19.07
2019-01-03T23:07:56.328Z,22.80
2019-01-03T23:10:24.857Z,27.90
2019-01-03T23:12:53.362Z,21.07
2019-01-03T23:15:21.886Z,21.73
2019-01-03T23:17:50.378Z,24.30
2019-01-03T23:20:19.000Z,19.67
2019-01-03T23:22:47.481Z,28.87
2019-01-03T23:25:15.994Z,20.20
2019-01-03T23:27:44.487Z,22.97
2019-01-03T23:30:12.997Z,18.50
2019-01-03T23:32:41.481Z,18.57
2019-01-03T23:35:09.988Z,19.43
2019-01-03T23:37:38.502Z,27.93
2019-01-03T23:40:07.075Z,27.07
2019-01-03T23:42:35.576Z,19.67
2019-01-03T23:45:15.091Z,20.63
2019-01-03T23:47:43.611Z,22.93
2019-01-03T23:50:15.187Z,23.77
2019-01-03T23:52:43.736Z,24.03
2019-01-03T23:55:12.391Z,20.33
2019-01-03T23:57:40.891Z,18.23
